createdAt,value
2018-07-24T00:01:59.058Z,19.20
2018-07-24T00:04:28.007Z,19.20
2018-07-24T00:06:57.026Z,19.20
2018-07-24T00:09:26.015Z,19.10
2018-07-24T00:11:54.986Z,19.10
2018-07-24T00:14:24.000Z,19.10
2018-07-24T00:16:52.996Z,19.00
2018-07-24T00:19:21.965Z,19.00
2018-07-24T00:24:19.710Z,18.90
2018-07-24T00:26:48.746Z,18.90
2018-07-24T00:29:17.753Z,18.90
2018-07-24T00:31:46.732Z,18.90
2018-07-24T00:34:15.736Z,18.90
2018-07-24T00:36:44.767Z,18.90
2018-07-24T00:41:42.470Z,18.80
2018-07-24T00:46:40.163Z,18.80
2018-07-24T00:49:09.146Z,18.80
2018-07-24T00:51:38.102Z,18.80
2018-07-24T00:54:07.113Z,18.80
2018-07-24T00:59:04.743Z,18.70
2018-07-24T01:01:33.735Z,18.70
2018-07-24T01:04:02.687Z,18.70
2018-07-24T01:06:31.653Z,18.70
2018-07-24T01:09:00.689Z,18.70
2018-07-24T01:13:58.282Z,18.60
2018-07-24T01:18:55.994Z,18.60
2018-07-24T01:26:22.326Z,18.50
2018-07-24T01:28:51.306Z,18.50
2018-07-24T01:31:20.298Z,18.50
2018-07-24T01:33:49.312Z,18.40
2018-07-24T01:36:18.340Z,18.40
2018-07-24T01:38:47.411Z,18.40
2018-07-24T01:41:16.453Z,18.40
2018-07-24T01:43:45.479Z,18.40
2018-07-24T01:46:14.461Z,18.30
2018-07-24T01:48:43.487Z,18.40
2018-07-24T01:51:12.464Z,18.40
2018-07-24T01:53:41.496Z,18.30
2018-07-24T01:56:10.475Z,18.30
2018-07-24T01:58:39.466Z,18.30
2018-07-24T02:01:08.531Z,18.30
2018-07-24T02:03:37.496Z,18.30
2018-07-24T02:06:06.939Z,18.30
2018-07-24T02:08:36.829Z,18.20
2018-07-24T02:20:27.020Z,18.20
2018-07-24T02:22:55.982Z,18.20
2018-07-24T02:25:24.968Z,17.70
2018-07-24T02:30:23.592Z,17.70
2018-07-24T02:35:21.243Z,17.80
2018-07-24T02:37:50.287Z,17.80
2018-07-24T02:42:48.131Z,17.80
2018-07-24T02:45:17.144Z,17.80
2018-07-24T02:47:46.186Z,17.80
2018-07-24T02:50:15.221Z,17.80
2018-07-24T02:52:44.207Z,17.80
2018-07-24T03:00:10.979Z,17.90
2018-07-24T03:02:40.004Z,17.80
2018-07-24T03:05:09.015Z,17.80
2018-07-24T03:07:38.009Z,17.70
2018-07-24T03:10:07.316Z,17.70
2018-07-24T03:12:37.440Z,17.70
2018-07-24T03:15:07.324Z,17.70
2018-07-24T03:17:36.314Z,17.60
2018-07-24T03:20:05.309Z,17.60
2018-07-24T03:22:34.238Z,17.60
2018-07-24T03:25:03.336Z,17.60
2018-07-24T03:27:32.387Z,17.60
2018-07-24T03:30:01.383Z,17.60
2018-07-24T03:32:30.374Z,17.70
2018-07-24T03:34:59.373Z,17.70
2018-07-24T03:37:28.391Z,17.70
2018-07-24T03:39:57.351Z,17.70
2018-07-24T03:42:26.325Z,17.80
2018-07-24T03:44:55.337Z,17.80
2018-07-24T03:47:24.326Z,17.90
2018-07-24T03:52:21.915Z,17.90
2018-07-24T03:57:19.563Z,17.90
2018-07-24T03:59:48.628Z,18.00
2018-07-24T04:02:17.728Z,18.00
2018-07-24T04:04:46.763Z,18.00
2018-07-24T04:07:15.772Z,18.10
2018-07-24T04:09:45.456Z,18.10
2018-07-24T04:12:14.508Z,18.10
2018-07-24T04:14:43.526Z,18.20
2018-07-24T04:17:12.543Z,18.20
2018-07-24T04:19:41.623Z,18.30
2018-07-24T04:22:10.593Z,18.40
2018-07-24T04:24:39.575Z,18.40
2018-07-24T04:27:08.568Z,18.40
2018-07-24T04:29:38.496Z,18.50
2018-07-24T04:32:08.499Z,18.60
2018-07-24T04:34:37.530Z,18.60
2018-07-24T04:37:06.996Z,18.70
2018-07-24T04:39:36.282Z,18.80
2018-07-24T04:42:05.392Z,18.90
2018-07-24T04:44:34.354Z,18.90
2018-07-24T04:47:03.339Z,19.00
2018-07-24T04:52:00.974Z,19.10
2018-07-24T04:54:30.012Z,19.20
2018-07-24T04:56:59.008Z,19.30
2018-07-24T04:59:28.162Z,19.50
2018-07-24T05:01:57.150Z,20.40
2018-07-24T05:04:26.112Z,22.10
2018-07-24T05:06:55.071Z,23.60
2018-07-24T05:09:24.080Z,24.90
2018-07-24T05:14:21.950Z,27.30
2018-07-24T05:16:50.986Z,28.30
2018-07-24T05:19:19.951Z,29.40
2018-07-24T05:21:48.941Z,30.30
2018-07-24T05:24:17.976Z,31.20
2018-07-24T05:26:46.979Z,32.10
2018-07-24T05:29:16.019Z,32.80
2018-07-24T05:31:45.249Z,33.30
2018-07-24T05:34:14.207Z,33.90
2018-07-24T05:36:43.211Z,34.50
2018-07-24T05:39:12.779Z,35.10
2018-07-24T05:41:42.312Z,35.50
2018-07-24T05:44:11.307Z,35.70
2018-07-24T05:46:40.559Z,35.40
2018-07-24T05:49:10.927Z,34.30
2018-07-24T05:51:39.930Z,33.20
2018-07-24T05:54:09.588Z,32.20
2018-07-24T05:56:39.579Z,32.70
2018-07-24T06:01:38.768Z,34.50
2018-07-24T06:04:07.773Z,35.40
2018-07-24T06:06:36.752Z,36.20
2018-07-24T06:09:07.123Z,36.80
2018-07-24T06:11:36.291Z,37.30
2018-07-24T06:14:05.459Z,37.50
2018-07-24T06:16:34.415Z,37.80
2018-07-24T06:19:03.442Z,38.30
2018-07-24T06:21:32.432Z,38.50
2018-07-24T06:24:01.403Z,38.60
2018-07-24T06:26:30.392Z,39.20
2018-07-24T06:28:59.395Z,39.50
2018-07-24T06:33:56.998Z,39.80
2018-07-24T06:36:26.031Z,40.10
2018-07-24T06:38:55.042Z,40.30
2018-07-24T06:41:24.082Z,40.40
2018-07-24T06:43:53.115Z,40.80
2018-07-24T06:46:22.100Z,40.80
2018-07-24T06:48:51.139Z,40.70
2018-07-24T06:51:20.285Z,40.90
2018-07-24T06:53:49.456Z,41.10
2018-07-24T06:56:18.486Z,41.30
2018-07-24T06:58:47.500Z,41.20
2018-07-24T07:01:16.511Z,41.40
2018-07-24T07:03:45.523Z,41.90
2018-07-24T07:06:14.446Z,42.20
2018-07-24T07:08:43.488Z,42.40
2018-07-24T07:11:12.755Z,42.50
2018-07-24T07:13:41.764Z,42.30
2018-07-24T07:16:10.784Z,42.50
2018-07-24T07:18:40.235Z,42.60
2018-07-24T07:21:09.243Z,42.70
2018-07-24T07:23:38.223Z,42.70
2018-07-24T07:26:07.457Z,42.80
2018-07-24T07:28:36.404Z,42.70
2018-07-24T07:31:05.381Z,42.70
2018-07-24T07:33:34.352Z,42.80
2018-07-24T07:36:03.340Z,42.80
2018-07-24T07:38:32.377Z,42.70
2018-07-24T07:41:01.370Z,42.40
2018-07-24T07:43:30.371Z,42.20
2018-07-24T07:45:59.328Z,42.20
2018-07-24T07:48:28.326Z,42.20
2018-07-24T07:50:57.279Z,41.90
2018-07-24T07:53:26.268Z,42.00
2018-07-24T07:55:55.307Z,41.80
2018-07-24T08:00:52.879Z,40.90
2018-07-24T08:03:21.856Z,40.60
2018-07-24T08:05:50.873Z,39.70
2018-07-24T08:08:19.916Z,38.50
2018-07-24T08:13:18.117Z,36.40
2018-07-24T08:15:47.142Z,35.30
2018-07-24T08:18:16.180Z,34.30
2018-07-24T08:20:45.183Z,33.50
2018-07-24T08:23:14.203Z,32.90
2018-07-24T08:25:43.232Z,32.50
2018-07-24T08:30:41.751Z,31.70
2018-07-24T08:33:10.771Z,31.60
2018-07-24T08:35:40.687Z,31.40
2018-07-24T08:38:10.303Z,31.30
2018-07-24T08:40:39.355Z,31.00
2018-07-24T08:50:34.304Z,30.70
2018-07-24T08:53:03.425Z,30.70
2018-07-24T08:55:32.674Z,30.50
2018-07-24T08:58:01.364Z,30.60
2018-07-24T09:02:59.124Z,30.80
2018-07-24T09:05:28.695Z,30.80
2018-07-24T09:07:57.692Z,30.90
2018-07-24T09:10:26.641Z,30.90
2018-07-24T09:12:55.631Z,31.00
2018-07-24T09:15:24.627Z,30.90
2018-07-24T09:17:53.670Z,30.90
2018-07-24T09:20:22.779Z,30.90
2018-07-24T09:22:51.791Z,31.00
2018-07-24T09:25:20.885Z,31.00
2018-07-24T09:27:49.883Z,31.10
2018-07-24T09:30:18.927Z,31.10
2018-07-24T09:32:47.966Z,31.00
2018-07-24T09:35:16.968Z,30.90
2018-07-24T09:37:46.045Z,31.00
2018-07-24T09:40:15.034Z,31.10
2018-07-24T09:47:41.459Z,31.20
2018-07-24T09:50:11.270Z,31.30
2018-07-24T09:52:41.148Z,31.30
2018-07-24T09:55:10.155Z,31.00
2018-07-24T09:57:39.111Z,30.90
2018-07-24T10:00:08.508Z,31.00
2018-07-24T10:02:38.122Z,31.30
2018-07-24T10:05:07.507Z,31.40
2018-07-24T10:07:36.656Z,31.50
2018-07-24T10:10:05.636Z,31.60
2018-07-24T10:15:03.295Z,31.80
2018-07-24T10:17:32.268Z,31.90
2018-07-24T10:20:01.332Z,32.00
2018-07-24T10:24:59.064Z,31.90
2018-07-24T10:27:28.004Z,31.70
2018-07-24T10:29:57.039Z,31.80
2018-07-24T10:34:54.723Z,32.00
2018-07-24T10:37:23.947Z,32.00
2018-07-24T10:39:52.998Z,31.90
2018-07-24T10:42:21.986Z,32.00
2018-07-24T10:44:51.059Z,32.10
2018-07-24T10:47:21.013Z,32.20
2018-07-24T10:49:50.004Z,32.10
2018-07-24T10:52:19.050Z,32.00
2018-07-24T10:54:48.047Z,31.90
2018-07-24T10:57:17.053Z,31.70
2018-07-24T10:59:46.088Z,31.50
2018-07-24T11:02:15.035Z,31.60
2018-07-24T11:04:43.979Z,31.60
2018-07-24T11:07:13.012Z,31.80
2018-07-24T11:09:41.972Z,31.90
2018-07-24T11:12:11.615Z,32.00
2018-07-24T11:14:41.507Z,32.10
2018-07-24T11:17:11.359Z,32.10
2018-07-24T11:19:40.342Z,32.10
2018-07-24T11:22:09.532Z,32.30
2018-07-24T11:24:38.350Z,32.30
2018-07-24T11:27:07.476Z,32.40
2018-07-24T11:32:05.095Z,32.60
2018-07-24T11:34:34.106Z,32.60
2018-07-24T11:37:03.074Z,32.70
2018-07-24T11:42:01.016Z,32.80
2018-07-24T11:44:30.012Z,32.90
2018-07-24T11:46:58.996Z,32.90
2018-07-24T11:49:27.957Z,32.90
2018-07-24T11:54:26.576Z,32.90
2018-07-24T11:56:55.568Z,32.80
2018-07-24T11:59:24.559Z,32.80
2018-07-24T12:01:53.604Z,32.80
2018-07-24T12:04:22.607Z,32.70
2018-07-24T12:06:51.625Z,32.80
2018-07-24T12:09:20.660Z,32.80
2018-07-24T12:11:49.747Z,32.90
2018-07-24T12:16:47.463Z,33.00
2018-07-24T12:19:16.634Z,33.00
2018-07-24T12:21:45.635Z,33.10
2018-07-24T12:24:14.675Z,33.10
2018-07-24T12:26:43.775Z,33.10
2018-07-24T12:29:13.608Z,33.10
2018-07-24T12:31:42.807Z,33.10
2018-07-24T12:34:12.715Z,33.10
2018-07-24T12:36:41.669Z,33.20
2018-07-24T12:39:11.486Z,33.10
2018-07-24T12:41:40.548Z,33.10
2018-07-24T12:44:09.504Z,32.90
2018-07-24T12:46:38.520Z,32.90
2018-07-24T12:49:07.547Z,32.80
2018-07-24T12:51:36.532Z,32.90
2018-07-24T12:54:05.524Z,32.90
2018-07-24T12:56:34.515Z,32.90
2018-07-24T12:59:03.512Z,33.00
2018-07-24T13:04:01.145Z,33.30
2018-07-24T13:06:30.095Z,33.20
2018-07-24T13:08:59.076Z,32.90
2018-07-24T13:11:28.100Z,32.50
2018-07-24T13:13:57.073Z,32.60
2018-07-24T13:16:26.088Z,32.80
2018-07-24T13:18:55.120Z,32.80
2018-07-24T13:23:54.642Z,32.90
2018-07-24T13:28:52.336Z,33.10
2018-07-24T13:31:22.059Z,33.20
2018-07-24T13:33:51.604Z,33.20
2018-07-24T13:41:18.375Z,33.50
2018-07-24T13:43:47.552Z,33.50
2018-07-24T13:46:16.723Z,33.50
2018-07-24T13:51:14.315Z,33.60
2018-07-24T13:53:43.385Z,33.60
2018-07-24T13:56:13.284Z,33.50
2018-07-24T13:58:43.224Z,33.50
2018-07-24T14:01:12.204Z,33.50
2018-07-24T14:03:41.175Z,33.50
2018-07-24T14:08:38.855Z,33.50
2018-07-24T14:11:07.847Z,33.70
2018-07-24T14:13:37.412Z,33.70
2018-07-24T14:18:35.020Z,33.60
2018-07-24T14:21:04.072Z,33.60
2018-07-24T14:23:33.028Z,33.50
2018-07-24T14:26:02.048Z,33.50
2018-07-24T14:28:31.123Z,33.50
2018-07-24T14:31:00.123Z,33.50
2018-07-24T14:33:29.702Z,33.50
2018-07-24T14:35:58.699Z,33.40
2018-07-24T14:38:27.713Z,33.10
2018-07-24T14:40:56.745Z,33.10
2018-07-24T14:43:25.906Z,33.20
2018-07-24T14:45:54.895Z,33.30
2018-07-24T14:48:24.702Z,33.40
2018-07-24T14:50:53.747Z,33.50
2018-07-24T14:53:22.775Z,33.50
2018-07-24T14:58:21.315Z,33.50
2018-07-24T15:00:50.295Z,33.30
2018-07-24T15:05:48.505Z,33.10
2018-07-24T15:08:17.582Z,33.10
2018-07-24T15:10:46.583Z,33.10
2018-07-24T15:13:15.583Z,33.30
2018-07-24T15:15:44.538Z,33.40
2018-07-24T15:18:13.832Z,33.50
2018-07-24T15:23:13.875Z,33.70
2018-07-24T15:28:12.542Z,33.80
2018-07-24T15:30:41.608Z,33.70
2018-07-24T15:35:39.825Z,33.60
2018-07-24T15:38:08.876Z,33.50
2018-07-24T15:40:37.883Z,33.60
2018-07-24T15:43:07.068Z,33.60
2018-07-24T15:45:37.427Z,33.70
2018-07-24T15:48:06.475Z,33.70
2018-07-24T15:53:04.176Z,33.70
2018-07-24T15:58:01.844Z,33.80
2018-07-24T16:00:30.830Z,33.80
2018-07-24T16:03:00.086Z,33.80
2018-07-24T16:05:29.115Z,33.70
2018-07-24T16:07:58.123Z,33.80
2018-07-24T16:10:27.101Z,33.80
2018-07-24T16:12:56.107Z,33.90
2018-07-24T16:15:25.142Z,33.90
2018-07-24T16:17:54.163Z,33.80
2018-07-24T16:20:23.184Z,33.80
2018-07-24T16:22:52.212Z,33.90
2018-07-24T16:27:49.857Z,33.90
2018-07-24T16:30:18.948Z,33.90
2018-07-24T16:32:48.045Z,33.90
2018-07-24T16:35:17.032Z,33.80
2018-07-24T16:37:46.047Z,33.60
2018-07-24T16:40:15.312Z,33.50
2018-07-24T16:42:44.389Z,33.50
2018-07-24T16:45:14.333Z,33.50
2018-07-24T16:47:44.272Z,33.50
2018-07-24T16:50:27.366Z,33.40
2018-07-24T16:55:25.043Z,33.40
2018-07-24T16:57:54.157Z,33.40
2018-07-24T17:00:23.704Z,33.30
2018-07-24T17:02:52.716Z,33.20
2018-07-24T17:05:22.235Z,33.00
2018-07-24T17:07:51.243Z,32.90
2018-07-24T17:10:20.340Z,32.80
2018-07-24T17:12:49.500Z,32.70
2018-07-24T17:15:18.484Z,32.70
2018-07-24T17:17:47.449Z,32.70
2018-07-24T17:20:16.703Z,32.60
2018-07-24T17:22:45.731Z,32.50
2018-07-24T17:25:15.685Z,32.40
2018-07-24T17:27:44.743Z,32.40
2018-07-24T17:30:14.586Z,32.30
2018-07-24T17:42:56.268Z,32.30
2018-07-24T17:45:25.258Z,31.80
2018-07-24T17:47:54.280Z,31.70
2018-07-24T17:50:23.284Z,31.70
2018-07-24T17:52:52.339Z,31.70
2018-07-24T17:57:50.132Z,31.70
2018-07-24T18:00:19.367Z,31.70
2018-07-24T18:07:47.353Z,31.70
2018-07-24T18:10:16.402Z,31.60
2018-07-24T18:15:14.565Z,31.60
2018-07-24T18:17:43.657Z,31.60
2018-07-24T18:20:12.791Z,31.60
2018-07-24T18:22:41.843Z,31.60
2018-07-24T18:25:10.952Z,31.40
2018-07-24T18:27:39.978Z,31.40
2018-07-24T18:30:08.928Z,31.30
2018-07-24T18:35:07.044Z,31.20
2018-07-24T18:40:05.050Z,31.20
2018-07-24T18:45:02.901Z,31.00
2018-07-24T18:47:32.305Z,30.80
2018-07-24T18:50:01.407Z,30.70
2018-07-24T18:52:30.451Z,30.50
2018-07-24T18:54:59.460Z,30.30
2018-07-24T18:57:28.505Z,30.20
2018-07-24T18:59:57.720Z,30.10
2018-07-24T19:02:26.962Z,30.00
2018-07-24T19:07:25.752Z,29.80
2018-07-24T19:09:54.842Z,29.70
2018-07-24T19:12:23.953Z,29.60
2018-07-24T19:14:53.043Z,29.60
2018-07-24T19:17:22.180Z,29.40
2018-07-24T19:19:51.316Z,29.30
2018-07-24T19:22:20.397Z,29.20
2018-07-24T19:29:48.748Z,28.80
2018-07-24T19:32:18.057Z,28.70
2018-07-24T19:34:47.410Z,28.50
2018-07-24T19:37:17.378Z,28.40
2018-07-24T19:39:46.796Z,28.30
2018-07-24T19:42:16.443Z,28.20
2018-07-24T19:44:45.944Z,28.10
2018-07-24T19:47:15.768Z,28.00
2018-07-24T19:49:45.458Z,27.90
2018-07-24T19:52:15.722Z,27.80
2018-07-24T19:54:45.656Z,27.70
2018-07-24T19:59:44.566Z,27.50
2018-07-24T20:02:13.894Z,27.40
2018-07-24T20:04:43.188Z,27.30
2018-07-24T20:07:12.770Z,27.20
2018-07-24T20:09:42.320Z,27.20
2018-07-24T20:12:11.849Z,27.20
2018-07-24T20:14:41.085Z,27.10
2018-07-24T20:17:11.378Z,27.00
2018-07-24T20:19:40.555Z,27.00
2018-07-24T20:22:09.704Z,26.90
2018-07-24T20:24:39.109Z,26.90
2018-07-24T20:27:08.165Z,26.80
2018-07-24T20:29:37.244Z,26.80
2018-07-24T20:32:06.472Z,26.80
2018-07-24T20:34:36.471Z,26.70
2018-07-24T20:37:05.543Z,26.60
2018-07-24T20:39:34.635Z,26.60
2018-07-24T20:42:04.032Z,26.50
2018-07-24T20:44:33.101Z,26.50
2018-07-24T20:51:59.560Z,26.40
2018-07-24T20:54:29.589Z,26.30
2018-07-24T20:56:58.636Z,26.30
2018-07-24T21:01:56.384Z,26.20
2018-07-24T21:04:25.398Z,26.20
2018-07-24T21:06:54.396Z,26.10
2018-07-24T21:09:23.465Z,26.00
2018-07-24T21:11:52.464Z,26.00
2018-07-24T21:16:50.203Z,25.90
2018-07-24T21:19:19.251Z,25.90
2018-07-24T21:24:17.100Z,25.90
2018-07-24T21:31:44.739Z,25.80
2018-07-24T21:34:13.867Z,25.70
2018-07-24T21:36:42.884Z,25.70
2018-07-24T21:41:41.121Z,25.60
2018-07-24T21:44:10.102Z,25.60
2018-07-24T21:46:39.071Z,25.60
2018-07-24T21:49:08.092Z,25.50
2018-07-24T21:51:37.068Z,25.50
2018-07-24T21:54:06.043Z,25.40
2018-07-24T21:56:35.032Z,25.40
2018-07-24T21:59:04.028Z,25.40
2018-07-24T22:01:33.016Z,25.30
2018-07-24T22:04:01.992Z,25.30
2018-07-24T22:06:30.999Z,25.20
2018-07-24T22:09:00.142Z,25.20
2018-07-24T22:11:29.048Z,25.20
2018-07-24T22:13:58.031Z,25.20
2018-07-24T22:18:55.687Z,25.10
2018-07-24T22:21:24.656Z,25.00
2018-07-24T22:23:53.619Z,25.00
2018-07-24T22:26:22.662Z,25.00
2018-07-24T22:28:51.680Z,25.00
2018-07-24T22:31:20.679Z,24.90
2018-07-24T22:33:49.709Z,24.80
2018-07-24T22:36:18.719Z,24.80
2018-07-24T22:38:47.749Z,24.80
2018-07-24T22:41:16.917Z,24.70
2018-07-24T22:43:46.858Z,24.70
2018-07-24T22:46:16.783Z,24.60
2018-07-24T22:48:45.823Z,24.60
2018-07-24T22:53:43.523Z,24.50
2018-07-24T22:56:12.577Z,24.40
2018-07-24T22:58:41.577Z,24.40
2018-07-24T23:01:10.526Z,24.40
2018-07-24T23:03:40.130Z,24.40
2018-07-24T23:06:09.129Z,24.40
2018-07-24T23:11:06.783Z,24.30
2018-07-24T23:13:35.787Z,24.20
2018-07-24T23:16:04.799Z,24.20
2018-07-24T23:18:33.739Z,24.20
2018-07-24T23:23:31.419Z,24.10
2018-07-24T23:26:00.392Z,24.10
2018-07-24T23:28:29.454Z,24.10
2018-07-24T23:33:27.011Z,24.10
2018-07-24T23:35:55.995Z,24.00
2018-07-24T23:38:24.975Z,24.00
2018-07-24T23:40:53.954Z,23.90
2018-07-24T23:43:22.903Z,23.90
2018-07-24T23:45:51.889Z,23.90
2018-07-24T23:48:20.897Z,23.80
2018-07-24T23:50:49.862Z,23.80
2018-07-24T23:55:47.596Z,23.70
2018-07-24T23:58:17.279Z,23.60
